sensor_id;sensor_type;location;lat;lon;timestamp;temperature;humidity
9847;DHT22;4962;50.084;8.794;2022-10-19T00:02:19;14.00;99.90
9847;DHT22;4962;50.084;8.794;2022-10-19T00:04:46;14.00;99.90
9847;DHT22;4962;50.084;8.794;2022-10-19T00:07:13;13.90;99.90
9847;DHT22;4962;50.084;8.794;2022-10-19T00:09:42;13.90;99.90
9847;DHT22;4962;50.084;8.794;2022-10-19T00:12:09;13.80;99.90
9847;DHT22;4962;50.084;8.794;2022-10-19T00:14:37;13.80;99.90
9847;DHT22;4962;50.084;8.794;2022-10-19T00:17:06;13.80;99.90
9847;DHT22;4962;50.084;8.794;2022-10-19T00:19:33;13.90;99.90
9847;DHT22;4962;50.084;8.794;2022-10-19T00:22:00;13.80;99.90
9847;DHT22;4962;50.084;8.794;2022-10-19T00:24:27;13.70;99.90
9847;DHT22;4962;50.084;8.794;2022-10-19T00:26:53;13.70;99.90
9847;DHT22;4962;50.084;8.794;2022-10-19T00:29:20;13.60;99.90
9847;DHT22;4962;50.084;8.794;2022-10-19T00:31:48;13.50;99.90
9847;DHT22;4962;50.084;8.794;2022-10-19T00:34:17;13.50;99.90
9847;DHT22;4962;50.084;8.794;2022-10-19T00:36:44;13.40;99.90
9847;DHT22;4962;50.084;8.794;2022-10-19T00:39:13;13.40;99.90
9847;DHT22;4962;50.084;8.794;2022-10-19T00:41:41;13.30;99.90
9847;DHT22;4962;50.084;8.794;2022-10-19T00:47:08;13.40;99.90
9847;DHT22;4962;50.084;8.794;2022-10-19T00:49:38;13.40;99.90
9847;DHT22;4962;50.084;8.794;2022-10-19T00:52:15;13.40;99.90
9847;DHT22;4962;50.084;8.794;2022-10-19T00:54:45;13.50;99.90
9847;DHT22;4962;50.084;8.794;2022-10-19T00:57:12;13.50;99.90
9847;DHT22;4962;50.084;8.794;2022-10-19T00:59:42;13.50;99.90
9847;DHT22;4962;50.084;8.794;2022-10-19T01:02:10;13.50;99.90
9847;DHT22;4962;50.084;8.794;2022-10-19T01:04:43;13.50;99.90
9847;DHT22;4962;50.084;8.794;2022-10-19T01:07:11;13.40;99.90
9847;DHT22;4962;50.084;8.794;2022-10-19T01:09:39;13.40;99.90
9847;DHT22;4962;50.084;8.794;2022-10-19T01:12:11;13.40;99.90
9847;DHT22;4962;50.084;8.794;2022-10-19T01:14:51;13.40;99.90
9847;DHT22;4962;50.084;8.794;2022-10-19T01:17:25;13.40;99.90
9847;DHT22;4962;50.084;8.794;2022-10-19T01:20:32;13.40;99.90
9847;DHT22;4962;50.084;8.794;2022-10-19T01:23:17;13.30;99.90
9847;DHT22;4962;50.084;8.794;2022-10-19T01:25:53;13.20;99.90
9847;DHT22;4962;50.084;8.794;2022-10-19T01:28:31;13.20;99.90
9847;DHT22;4962;50.084;8.794;2022-10-19T01:31:08;13.10;99.90
9847;DHT22;4962;50.084;8.794;2022-10-19T01:33:46;13.10;99.90
9847;DHT22;4962;50.084;8.794;2022-10-19T01:36:21;13.00;99.90
9847;DHT22;4962;50.084;8.794;2022-10-19T01:38:52;13.00;99.90
9847;DHT22;4962;50.084;8.794;2022-10-19T01:41:26;13.00;99.90
9847;DHT22;4962;50.084;8.794;2022-10-19T01:43:57;13.00;99.90
9847;DHT22;4962;50.084;8.794;2022-10-19T01:46:31;13.00;99.90
9847;DHT22;4962;50.084;8.794;2022-10-19T01:49:04;13.00;99.90
9847;DHT22;4962;50.084;8.794;2022-10-19T01:51:36;13.00;99.90
9847;DHT22;4962;50.084;8.794;2022-10-19T01:54:07;13.00;99.90
9847;DHT22;4962;50.084;8.794;2022-10-19T01:56:36;13.00;99.90
9847;DHT22;4962;50.084;8.794;2022-10-19T01:59:08;12.90;99.90
9847;DHT22;4962;50.084;8.794;2022-10-19T02:01:40;12.90;99.90
9847;DHT22;4962;50.084;8.794;2022-10-19T02:04:10;12.90;99.90
9847;DHT22;4962;50.084;8.794;2022-10-19T02:06:38;12.90;99.90
9847;DHT22;4962;50.084;8.794;2022-10-19T02:09:06;12.90;99.90
9847;DHT22;4962;50.084;8.794;2022-10-19T02:11:34;12.90;99.90
9847;DHT22;4962;50.084;8.794;2022-10-19T02:14:05;12.90;99.90
9847;DHT22;4962;50.084;8.794;2022-10-19T02:16:39;12.80;99.90
9847;DHT22;4962;50.084;8.794;2022-10-19T02:19:07;12.70;99.90
9847;DHT22;4962;50.084;8.794;2022-10-19T02:21:35;12.70;99.90
9847;DHT22;4962;50.084;8.794;2022-10-19T02:24:03;12.70;99.90
9847;DHT22;4962;50.084;8.794;2022-10-19T02:26:30;12.60;99.90
9847;DHT22;4962;50.084;8.794;2022-10-19T02:28:58;12.60;99.90
9847;DHT22;4962;50.084;8.794;2022-10-19T02:31:25;12.60;99.90
9847;DHT22;4962;50.084;8.794;2022-10-19T02:33:54;12.60;99.90
9847;DHT22;4962;50.084;8.794;2022-10-19T02:36:21;12.60;99.90
9847;DHT22;4962;50.084;8.794;2022-10-19T02:38:48;12.50;99.90
9847;DHT22;4962;50.084;8.794;2022-10-19T02:41:17;12.50;99.90
9847;DHT22;4962;50.084;8.794;2022-10-19T02:43:48;12.50;99.90
9847;DHT22;4962;50.084;8.794;2022-10-19T02:46:21;12.50;99.90
9847;DHT22;4962;50.084;8.794;2022-10-19T02:48:50;12.50;99.90
9847;DHT22;4962;50.084;8.794;2022-10-19T02:51:30;12.60;99.90
9847;DHT22;4962;50.084;8.794;2022-10-19T02:53:57;12.50;99.90
9847;DHT22;4962;50.084;8.794;2022-10-19T02:56:24;12.50;99.90
9847;DHT22;4962;50.084;8.794;2022-10-19T02:58:51;12.50;99.90
9847;DHT22;4962;50.084;8.794;2022-10-19T03:01:18;12.50;99.90
9847;DHT22;4962;50.084;8.794;2022-10-19T03:03:45;12.50;99.90
9847;DHT22;4962;50.084;8.794;2022-10-19T03:06:12;12.50;99.90
9847;DHT22;4962;50.084;8.794;2022-10-19T03:08:41;12.40;99.90
9847;DHT22;4962;50.084;8.794;2022-10-19T03:11:08;12.30;99.90
9847;DHT22;4962;50.084;8.794;2022-10-19T03:13:35;12.20;99.90
9847;DHT22;4962;50.084;8.794;2022-10-19T03:16:06;12.20;99.90
9847;DHT22;4962;50.084;8.794;2022-10-19T03:18:33;12.20;99.90
9847;DHT22;4962;50.084;8.794;2022-10-19T03:21:01;12.20;99.90
9847;DHT22;4962;50.084;8.794;2022-10-19T03:23:29;12.20;99.90
9847;DHT22;4962;50.084;8.794;2022-10-19T03:25:57;12.10;99.90
9847;DHT22;4962;50.084;8.794;2022-10-19T03:28:24;12.00;99.90
9847;DHT22;4962;50.084;8.794;2022-10-19T03:30:51;12.00;99.90
9847;DHT22;4962;50.084;8.794;2022-10-19T03:33:18;12.00;99.90
9847;DHT22;4962;50.084;8.794;2022-10-19T03:35:45;11.90;99.90
9847;DHT22;4962;50.084;8.794;2022-10-19T03:38:12;11.80;99.90
9847;DHT22;4962;50.084;8.794;2022-10-19T03:40:39;11.80;99.90
9847;DHT22;4962;50.084;8.794;2022-10-19T03:43:07;11.70;99.90
9847;DHT22;4962;50.084;8.794;2022-10-19T03:45:34;11.60;99.90
9847;DHT22;4962;50.084;8.794;2022-10-19T03:48:01;11.60;99.90
9847;DHT22;4962;50.084;8.794;2022-10-19T03:50:28;11.50;99.90
9847;DHT22;4962;50.084;8.794;2022-10-19T03:52:55;11.50;99.90
9847;DHT22;4962;50.084;8.794;2022-10-19T03:55:22;11.50;99.90
9847;DHT22;4962;50.084;8.794;2022-10-19T03:57:51;11.50;99.90
9847;DHT22;4962;50.084;8.794;2022-10-19T04:00:20;11.50;99.90
9847;DHT22;4962;50.084;8.794;2022-10-19T04:02:46;11.50;99.90
9847;DHT22;4962;50.084;8.794;2022-10-19T04:05:13;11.50;99.90
9847;DHT22;4962;50.084;8.794;2022-10-19T04:07:40;11.40;99.90
9847;DHT22;4962;50.084;8.794;2022-10-19T04:10:08;11.30;99.90
9847;DHT22;4962;50.084;8.794;2022-10-19T04:12:35;11.40;99.90
9847;DHT22;4962;50.084;8.794;2022-10-19T04:15:02;11.30;99.90
9847;DHT22;4962;50.084;8.794;2022-10-19T04:17:30;11.30;99.90
9847;DHT22;4962;50.084;8.794;2022-10-19T04:19:57;11.20;99.90
9847;DHT22;4962;50.084;8.794;2022-10-19T04:22:24;11.20;99.90
9847;DHT22;4962;50.084;8.794;2022-10-19T04:24:52;11.20;99.90
9847;DHT22;4962;50.084;8.794;2022-10-19T04:27:19;11.20;99.90
9847;DHT22;4962;50.084;8.794;2022-10-19T04:29:46;11.20;99.90
9847;DHT22;4962;50.084;8.794;2022-10-19T04:32:13;11.10;99.90
9847;DHT22;4962;50.084;8.794;2022-10-19T04:34:42;11.10;99.90
9847;DHT22;4962;50.084;8.794;2022-10-19T04:37:09;11.00;99.90
9847;DHT22;4962;50.084;8.794;2022-10-19T04:39:36;10.90;99.90
9847;DHT22;4962;50.084;8.794;2022-10-19T04:42:05;10.90;99.90
9847;DHT22;4962;50.084;8.794;2022-10-19T04:44:32;10.80;99.90
9847;DHT22;4962;50.084;8.794;2022-10-19T04:46:59;10.70;99.90
9847;DHT22;4962;50.084;8.794;2022-10-19T04:49:26;10.70;99.90
9847;DHT22;4962;50.084;8.794;2022-10-19T04:51:55;10.60;99.90
9847;DHT22;4962;50.084;8.794;2022-10-19T04:54:22;10.50;99.90
9847;DHT22;4962;50.084;8.794;2022-10-19T04:56:49;10.40;99.90
9847;DHT22;4962;50.084;8.794;2022-10-19T04:59:18;10.30;99.90
9847;DHT22;4962;50.084;8.794;2022-10-19T05:01:45;10.30;99.90
9847;DHT22;4962;50.084;8.794;2022-10-19T05:04:12;10.20;99.90
9847;DHT22;4962;50.084;8.794;2022-10-19T05:06:39;10.20;99.90
9847;DHT22;4962;50.084;8.794;2022-10-19T05:09:07;10.20;99.90
9847;DHT22;4962;50.084;8.794;2022-10-19T05:11:34;10.20;99.90
9847;DHT22;4962;50.084;8.794;2022-10-19T05:14:01;10.20;99.90
9847;DHT22;4962;50.084;8.794;2022-10-19T05:16:28;10.20;99.90
9847;DHT22;4962;50.084;8.794;2022-10-19T05:18:55;10.20;99.90
9847;DHT22;4962;50.084;8.794;2022-10-19T05:21:24;10.20;99.90
9847;DHT22;4962;50.084;8.794;2022-10-19T05:23:54;10.10;99.90
9847;DHT22;4962;50.084;8.794;2022-10-19T05:26:29;10.10;99.90
9847;DHT22;4962;50.084;8.794;2022-10-19T05:28:57;10.00;99.90
9847;DHT22;4962;50.084;8.794;2022-10-19T05:31:27;9.90;99.90
9847;DHT22;4962;50.084;8.794;2022-10-19T05:33:54;9.90;99.90
9847;DHT22;4962;50.084;8.794;2022-10-19T05:36:23;9.80;99.90
9847;DHT22;4962;50.084;8.794;2022-10-19T05:38:52;9.90;99.90
9847;DHT22;4962;50.084;8.794;2022-10-19T05:41:19;9.80;99.90
9847;DHT22;4962;50.084;8.794;2022-10-19T05:43:51;9.80;99.90
9847;DHT22;4962;50.084;8.794;2022-10-19T05:46:18;9.90;99.90
9847;DHT22;4962;50.084;8.794;2022-10-19T05:48:46;10.00;99.90
9847;DHT22;4962;50.084;8.794;2022-10-19T05:51:14;10.00;99.90
9847;DHT22;4962;50.084;8.794;2022-10-19T05:53:42;10.00;99.90
9847;DHT22;4962;50.084;8.794;2022-10-19T05:56:12;10.10;99.90
9847;DHT22;4962;50.084;8.794;2022-10-19T05:58:44;10.10;99.90
9847;DHT22;4962;50.084;8.794;2022-10-19T06:01:17;10.20;99.90
9847;DHT22;4962;50.084;8.794;2022-10-19T06:03:49;10.20;99.90
9847;DHT22;4962;50.084;8.794;2022-10-19T06:06:17;10.20;99.90
9847;DHT22;4962;50.084;8.794;2022-10-19T06:08:44;10.10;99.90
9847;DHT22;4962;50.084;8.794;2022-10-19T06:11:13;10.00;99.90
9847;DHT22;4962;50.084;8.794;2022-10-19T06:13:41;10.00;99.90
9847;DHT22;4962;50.084;8.794;2022-10-19T06:16:10;10.00;99.90
9847;DHT22;4962;50.084;8.794;2022-10-19T06:18:38;10.00;99.90
9847;DHT22;4962;50.084;8.794;2022-10-19T06:21:16;10.00;99.90
9847;DHT22;4962;50.084;8.794;2022-10-19T06:23:44;10.00;99.90
9847;DHT22;4962;50.084;8.794;2022-10-19T06:26:12;10.00;99.90
9847;DHT22;4962;50.084;8.794;2022-10-19T06:28:40;10.00;99.90
9847;DHT22;4962;50.084;8.794;2022-10-19T06:31:08;9.90;99.90
9847;DHT22;4962;50.084;8.794;2022-10-19T06:33:35;9.90;99.90
9847;DHT22;4962;50.084;8.794;2022-10-19T06:36:07;10.00;99.90
9847;DHT22;4962;50.084;8.794;2022-10-19T06:39:11;10.00;99.90
9847;DHT22;4962;50.084;8.794;2022-10-19T06:41:38;10.10;99.90
9847;DHT22;4962;50.084;8.794;2022-10-19T06:44:05;10.10;99.90
9847;DHT22;4962;50.084;8.794;2022-10-19T06:46:32;10.20;99.90
9847;DHT22;4962;50.084;8.794;2022-10-19T06:49:00;10.30;99.90
9847;DHT22;4962;50.084;8.794;2022-10-19T06:51:30;10.40;99.90
9847;DHT22;4962;50.084;8.794;2022-10-19T06:53:58;10.50;99.90
9847;DHT22;4962;50.084;8.794;2022-10-19T06:56:25;10.70;99.90
9847;DHT22;4962;50.084;8.794;2022-10-19T06:58:53;10.90;99.90
9847;DHT22;4962;50.084;8.794;2022-10-19T07:01:23;11.00;99.90
9847;DHT22;4962;50.084;8.794;2022-10-19T07:03:51;11.20;99.90
9847;DHT22;4962;50.084;8.794;2022-10-19T07:06:18;11.30;99.90
9847;DHT22;4962;50.084;8.794;2022-10-19T07:08:47;11.40;99.90
9847;DHT22;4962;50.084;8.794;2022-10-19T07:11:16;11.50;99.90
9847;DHT22;4962;50.084;8.794;2022-10-19T07:13:43;11.60;99.90
9847;DHT22;4962;50.084;8.794;2022-10-19T07:16:12;11.70;99.90
9847;DHT22;4962;50.084;8.794;2022-10-19T07:18:47;11.80;99.90
9847;DHT22;4962;50.084;8.794;2022-10-19T07:21:15;12.00;99.90
9847;DHT22;4962;50.084;8.794;2022-10-19T07:23:44;12.00;99.90
9847;DHT22;4962;50.084;8.794;2022-10-19T07:26:14;12.00;99.90
9847;DHT22;4962;50.084;8.794;2022-10-19T07:28:43;12.10;99.90
9847;DHT22;4962;50.084;8.794;2022-10-19T07:31:12;12.10;99.90
9847;DHT22;4962;50.084;8.794;2022-10-19T07:33:39;12.00;99.90
9847;DHT22;4962;50.084;8.794;2022-10-19T07:36:08;12.00;99.90
9847;DHT22;4962;50.084;8.794;2022-10-19T07:38:36;12.00;99.90
9847;DHT22;4962;50.084;8.794;2022-10-19T07:41:17;11.90;99.90
9847;DHT22;4962;50.084;8.794;2022-10-19T07:43:46;11.90;99.90
9847;DHT22;4962;50.084;8.794;2022-10-19T07:46:14;11.90;99.90
9847;DHT22;4962;50.084;8.794;2022-10-19T07:48:41;11.80;99.90
9847;DHT22;4962;50.084;8.794;2022-10-19T07:51:10;11.80;99.90
9847;DHT22;4962;50.084;8.794;2022-10-19T07:53:38;11.80;99.90
9847;DHT22;4962;50.084;8.794;2022-10-19T07:56:07;11.80;99.90
9847;DHT22;4962;50.084;8.794;2022-10-19T07:58:36;11.80;99.90
9847;DHT22;4962;50.084;8.794;2022-10-19T08:01:05;11.80;99.90
9847;DHT22;4962;50.084;8.794;2022-10-19T08:03:34;11.90;99.90
9847;DHT22;4962;50.084;8.794;2022-10-19T08:06:03;11.90;99.90
9847;DHT22;4962;50.084;8.794;2022-10-19T08:08:41;11.90;99.90
9847;DHT22;4962;50.084;8.794;2022-10-19T08:11:10;12.00;99.90
9847;DHT22;4962;50.084;8.794;2022-10-19T08:13:39;12.00;99.90
9847;DHT22;4962;50.084;8.794;2022-10-19T08:16:20;12.00;99.90
9847;DHT22;4962;50.084;8.794;2022-10-19T08:18:47;12.00;99.90
9847;DHT22;4962;50.084;8.794;2022-10-19T08:21:14;12.10;99.90
9847;DHT22;4962;50.084;8.794;2022-10-19T08:23:41;12.00;99.90
9847;DHT22;4962;50.084;8.794;2022-10-19T08:26:08;12.10;99.90
9847;DHT22;4962;50.084;8.794;2022-10-19T08:28:34;12.10;99.90
9847;DHT22;4962;50.084;8.794;2022-10-19T08:31:10;12.10;99.90
9847;DHT22;4962;50.084;8.794;2022-10-19T08:33:37;12.10;99.90
9847;DHT22;4962;50.084;8.794;2022-10-19T08:36:05;12.10;99.90
9847;DHT22;4962;50.084;8.794;2022-10-19T08:38:33;12.20;99.90
9847;DHT22;4962;50.084;8.794;2022-10-19T08:41:12;12.20;99.90
9847;DHT22;4962;50.084;8.794;2022-10-19T08:43:55;12.20;99.90
9847;DHT22;4962;50.084;8.794;2022-10-19T08:46:32;12.20;99.90
9847;DHT22;4962;50.084;8.794;2022-10-19T08:49:01;12.30;99.90
9847;DHT22;4962;50.084;8.794;2022-10-19T08:51:31;12.30;99.90
9847;DHT22;4962;50.084;8.794;2022-10-19T08:54:03;12.30;99.90
9847;DHT22;4962;50.084;8.794;2022-10-19T08:56:41;12.40;99.90
9847;DHT22;4962;50.084;8.794;2022-10-19T08:59:15;12.50;99.90
9847;DHT22;4962;50.084;8.794;2022-10-19T09:01:49;12.50;99.90
9847;DHT22;4962;50.084;8.794;2022-10-19T09:04:21;12.60;99.90
9847;DHT22;4962;50.084;8.794;2022-10-19T09:07:23;12.70;99.90
9847;DHT22;4962;50.084;8.794;2022-10-19T09:09:54;12.70;99.90
9847;DHT22;4962;50.084;8.794;2022-10-19T09:12:31;12.80;99.90
9847;DHT22;4962;50.084;8.794;2022-10-19T09:15:02;12.80;99.90
9847;DHT22;4962;50.084;8.794;2022-10-19T09:17:32;12.90;99.90
9847;DHT22;4962;50.084;8.794;2022-10-19T09:20:14;12.90;99.90
9847;DHT22;4962;50.084;8.794;2022-10-19T09:22:41;13.00;99.90
9847;DHT22;4962;50.084;8.794;2022-10-19T09:25:20;13.00;99.90
9847;DHT22;4962;50.084;8.794;2022-10-19T09:27:55;13.10;99.90
9847;DHT22;4962;50.084;8.794;2022-10-19T09:30:24;13.10;99.90
9847;DHT22;4962;50.084;8.794;2022-10-19T09:32:59;13.20;99.90
9847;DHT22;4962;50.084;8.794;2022-10-19T09:35:29;13.30;99.90
9847;DHT22;4962;50.084;8.794;2022-10-19T09:37:57;13.30;99.90
9847;DHT22;4962;50.084;8.794;2022-10-19T09:40:26;13.40;99.90
9847;DHT22;4962;50.084;8.794;2022-10-19T09:42:54;13.40;99.90
9847;DHT22;4962;50.084;8.794;2022-10-19T09:45:34;13.40;99.90
9847;DHT22;4962;50.084;8.794;2022-10-19T09:48:15;13.40;99.90
9847;DHT22;4962;50.084;8.794;2022-10-19T09:50:44;13.50;99.90
9847;DHT22;4962;50.084;8.794;2022-10-19T09:53:17;13.50;99.90
9847;DHT22;4962;50.084;8.794;2022-10-19T09:55:48;13.60;99.90
9847;DHT22;4962;50.084;8.794;2022-10-19T09:58:17;13.60;99.90
9847;DHT22;4962;50.084;8.794;2022-10-19T10:00:47;13.70;99.90
9847;DHT22;4962;50.084;8.794;2022-10-19T10:03:25;13.70;99.90
9847;DHT22;4962;50.084;8.794;2022-10-19T10:05:55;13.80;99.90
9847;DHT22;4962;50.084;8.794;2022-10-19T10:08:25;13.80;99.90
9847;DHT22;4962;50.084;8.794;2022-10-19T10:10:58;13.80;99.90
9847;DHT22;4962;50.084;8.794;2022-10-19T10:13:36;13.90;99.90
9847;DHT22;4962;50.084;8.794;2022-10-19T10:16:05;13.90;99.90
9847;DHT22;4962;50.084;8.794;2022-10-19T10:18:37;14.00;99.90
9847;DHT22;4962;50.084;8.794;2022-10-19T10:21:12;14.10;99.90
9847;DHT22;4962;50.084;8.794;2022-10-19T10:23:39;14.00;99.90
9847;DHT22;4962;50.084;8.794;2022-10-19T10:26:16;14.10;99.90
9847;DHT22;4962;50.084;8.794;2022-10-19T10:28:48;14.20;99.90
9847;DHT22;4962;50.084;8.794;2022-10-19T10:31:33;14.20;99.90
9847;DHT22;4962;50.084;8.794;2022-10-19T10:34:02;14.30;99.90
9847;DHT22;4962;50.084;8.794;2022-10-19T10:36:31;14.30;99.90
9847;DHT22;4962;50.084;8.794;2022-10-19T10:39:02;14.30;99.90
9847;DHT22;4962;50.084;8.794;2022-10-19T10:41:36;14.30;99.90
9847;DHT22;4962;50.084;8.794;2022-10-19T10:44:14;14.40;99.90
9847;DHT22;4962;50.084;8.794;2022-10-19T10:46:49;14.40;99.90
9847;DHT22;4962;50.084;8.794;2022-10-19T10:49:21;14.50;99.90
9847;DHT22;4962;50.084;8.794;2022-10-19T10:51:53;14.50;99.90
9847;DHT22;4962;50.084;8.794;2022-10-19T10:54:22;14.50;99.90
9847;DHT22;4962;50.084;8.794;2022-10-19T10:57:02;14.60;99.90
9847;DHT22;4962;50.084;8.794;2022-10-19T10:59:35;14.60;99.90
9847;DHT22;4962;50.084;8.794;2022-10-19T11:02:22;14.60;99.90
9847;DHT22;4962;50.084;8.794;2022-10-19T11:04:58;14.70;99.90
9847;DHT22;4962;50.084;8.794;2022-10-19T11:07:28;14.70;99.90
9847;DHT22;4962;50.084;8.794;2022-10-19T11:09:58;14.70;99.90
9847;DHT22;4962;50.084;8.794;2022-10-19T11:12:36;14.80;99.90
9847;DHT22;4962;50.084;8.794;2022-10-19T11:15:14;14.80;99.90
9847;DHT22;4962;50.084;8.794;2022-10-19T11:17:52;14.80;99.90
9847;DHT22;4962;50.084;8.794;2022-10-19T11:20:26;14.80;99.90
9847;DHT22;4962;50.084;8.794;2022-10-19T11:23:01;14.90;99.90
9847;DHT22;4962;50.084;8.794;2022-10-19T11:25:42;14.90;99.90
9847;DHT22;4962;50.084;8.794;2022-10-19T11:28:33;15.00;99.90
9847;DHT22;4962;50.084;8.794;2022-10-19T11:31:11;15.00;99.90
9847;DHT22;4962;50.084;8.794;2022-10-19T11:33:48;15.10;99.90
9847;DHT22;4962;50.084;8.794;2022-10-19T11:36:29;15.10;99.90
9847;DHT22;4962;50.084;8.794;2022-10-19T11:39:11;15.20;99.90
9847;DHT22;4962;50.084;8.794;2022-10-19T11:41:50;15.20;99.90
9847;DHT22;4962;50.084;8.794;2022-10-19T11:44:27;15.30;99.90
9847;DHT22;4962;50.084;8.794;2022-10-19T11:47:07;15.30;99.90
9847;DHT22;4962;50.084;8.794;2022-10-19T11:49:48;15.40;99.90
9847;DHT22;4962;50.084;8.794;2022-10-19T11:52:25;15.40;99.90
9847;DHT22;4962;50.084;8.794;2022-10-19T11:55:04;15.40;99.90
9847;DHT22;4962;50.084;8.794;2022-10-19T11:57:41;15.40;99.90
9847;DHT22;4962;50.084;8.794;2022-10-19T12:00:11;15.40;99.90
9847;DHT22;4962;50.084;8.794;2022-10-19T12:03:08;15.50;99.90
9847;DHT22;4962;50.084;8.794;2022-10-19T12:06:00;15.50;99.90
9847;DHT22;4962;50.084;8.794;2022-10-19T12:08:41;15.50;99.90
9847;DHT22;4962;50.084;8.794;2022-10-19T12:11:23;15.60;99.90
9847;DHT22;4962;50.084;8.794;2022-10-19T12:13:55;15.60;99.90
9847;DHT22;4962;50.084;8.794;2022-10-19T12:16:29;15.70;99.90
9847;DHT22;4962;50.084;8.794;2022-10-19T12:19:03;15.70;99.90
9847;DHT22;4962;50.084;8.794;2022-10-19T12:21:34;15.70;99.90
9847;DHT22;4962;50.084;8.794;2022-10-19T12:24:09;15.80;99.90
9847;DHT22;4962;50.084;8.794;2022-10-19T12:26:39;15.80;99.90
9847;DHT22;4962;50.084;8.794;2022-10-19T12:29:12;15.80;99.90
9847;DHT22;4962;50.084;8.794;2022-10-19T12:31:41;15.90;99.90
9847;DHT22;4962;50.084;8.794;2022-10-19T12:34:20;16.00;99.90
9847;DHT22;4962;50.084;8.794;2022-10-19T12:36:53;16.00;99.90
9847;DHT22;4962;50.084;8.794;2022-10-19T12:39:25;16.00;99.90
9847;DHT22;4962;50.084;8.794;2022-10-19T12:42:01;16.10;99.90
9847;DHT22;4962;50.084;8.794;2022-10-19T12:44:55;16.10;99.90
9847;DHT22;4962;50.084;8.794;2022-10-19T12:47:27;16.10;99.90
9847;DHT22;4962;50.084;8.794;2022-10-19T12:49:55;16.10;99.90
9847;DHT22;4962;50.084;8.794;2022-10-19T12:52:38;16.10;99.90
9847;DHT22;4962;50.084;8.794;2022-10-19T12:55:22;16.10;99.90
9847;DHT22;4962;50.084;8.794;2022-10-19T12:57:57;16.10;99.90
9847;DHT22;4962;50.084;8.794;2022-10-19T13:00:27;16.20;99.90
9847;DHT22;4962;50.084;8.794;2022-10-19T13:02:58;16.20;99.90
9847;DHT22;4962;50.084;8.794;2022-10-19T13:05:28;16.20;99.90
9847;DHT22;4962;50.084;8.794;2022-10-19T13:07:56;16.20;99.90
9847;DHT22;4962;50.084;8.794;2022-10-19T13:10:26;16.20;99.90
9847;DHT22;4962;50.084;8.794;2022-10-19T13:12:54;16.30;99.90
9847;DHT22;4962;50.084;8.794;2022-10-19T13:15:54;16.30;99.90
9847;DHT22;4962;50.084;8.794;2022-10-19T13:24:35;16.30;99.90
9847;DHT22;4962;50.084;8.794;2022-10-19T13:27:24;16.40;99.90
9847;DHT22;4962;50.084;8.794;2022-10-19T13:29:52;16.30;99.90
9847;DHT22;4962;50.084;8.794;2022-10-19T13:32:35;16.30;99.90
9847;DHT22;4962;50.084;8.794;2022-10-19T13:35:30;16.30;99.90
9847;DHT22;4962;50.084;8.794;2022-10-19T13:38:24;16.30;99.90
9847;DHT22;4962;50.084;8.794;2022-10-19T13:40:59;16.30;99.90
9847;DHT22;4962;50.084;8.794;2022-10-19T13:43:31;16.30;99.90
9847;DHT22;4962;50.084;8.794;2022-10-19T13:46:07;16.30;99.90
9847;DHT22;4962;50.084;8.794;2022-10-19T13:48:56;16.30;99.90
9847;DHT22;4962;50.084;8.794;2022-10-19T13:51:32;16.30;99.90
9847;DHT22;4962;50.084;8.794;2022-10-19T13:54:09;16.30;99.90
9847;DHT22;4962;50.084;8.794;2022-10-19T13:56:52;16.30;99.90
9847;DHT22;4962;50.084;8.794;2022-10-19T13:59:37;16.30;99.90
9847;DHT22;4962;50.084;8.794;2022-10-19T14:02:40;16.30;99.90
9847;DHT22;4962;50.084;8.794;2022-10-19T14:05:23;16.30;99.90
9847;DHT22;4962;50.084;8.794;2022-10-19T14:08:02;16.30;99.90
9847;DHT22;4962;50.084;8.794;2022-10-19T14:10:32;16.30;99.90
9847;DHT22;4962;50.084;8.794;2022-10-19T14:13:01;16.30;99.90
9847;DHT22;4962;50.084;8.794;2022-10-19T14:15:32;16.30;99.90
9847;DHT22;4962;50.084;8.794;2022-10-19T14:17:59;16.20;99.90
9847;DHT22;4962;50.084;8.794;2022-10-19T14:20:37;16.30;99.90
9847;DHT22;4962;50.084;8.794;2022-10-19T14:23:17;16.30;99.90
9847;DHT22;4962;50.084;8.794;2022-10-19T14:25:49;16.30;99.90
9847;DHT22;4962;50.084;8.794;2022-10-19T14:28:16;16.30;99.90
9847;DHT22;4962;50.084;8.794;2022-10-19T14:30:53;16.30;99.90
9847;DHT22;4962;50.084;8.794;2022-10-19T14:33:21;16.30;99.90
9847;DHT22;4962;50.084;8.794;2022-10-19T14:35:50;16.20;99.90
9847;DHT22;4962;50.084;8.794;2022-10-19T14:38:20;16.20;99.90
9847;DHT22;4962;50.084;8.794;2022-10-19T14:40:48;16.30;99.90
9847;DHT22;4962;50.084;8.794;2022-10-19T14:43:19;16.30;99.90
9847;DHT22;4962;50.084;8.794;2022-10-19T14:48:40;16.30;99.90
9847;DHT22;4962;50.084;8.794;2022-10-19T14:51:27;16.30;99.90
9847;DHT22;4962;50.084;8.794;2022-10-19T14:53:57;16.30;99.90
9847;DHT22;4962;50.084;8.794;2022-10-19T14:56:32;16.30;99.90
9847;DHT22;4962;50.084;8.794;2022-10-19T14:59:01;16.30;99.90
9847;DHT22;4962;50.084;8.794;2022-10-19T15:01:29;16.30;99.90
9847;DHT22;4962;50.084;8.794;2022-10-19T15:03:58;16.30;99.90
9847;DHT22;4962;50.084;8.794;2022-10-19T15:06:27;16.30;99.90
9847;DHT22;4962;50.084;8.794;2022-10-19T15:08:57;16.30;99.90
9847;DHT22;4962;50.084;8.794;2022-10-19T15:11:26;16.30;99.90
9847;DHT22;4962;50.084;8.794;2022-10-19T15:14:00;16.30;99.90
9847;DHT22;4962;50.084;8.794;2022-10-19T15:16:33;16.30;99.90
9847;DHT22;4962;50.084;8.794;2022-10-19T15:19:16;16.30;99.90
9847;DHT22;4962;50.084;8.794;2022-10-19T15:21:43;16.30;99.90
9847;DHT22;4962;50.084;8.794;2022-10-19T15:24:23;16.30;99.90
9847;DHT22;4962;50.084;8.794;2022-10-19T15:26:53;16.30;99.90
9847;DHT22;4962;50.084;8.794;2022-10-19T15:29:22;16.30;99.90
9847;DHT22;4962;50.084;8.794;2022-10-19T15:31:49;16.30;99.90
9847;DHT22;4962;50.084;8.794;2022-10-19T15:34:24;16.30;99.90
9847;DHT22;4962;50.084;8.794;2022-10-19T15:36:54;16.30;99.90
9847;DHT22;4962;50.084;8.794;2022-10-19T15:39:31;16.20;99.90
9847;DHT22;4962;50.084;8.794;2022-10-19T15:42:30;16.20;99.90
9847;DHT22;4962;50.084;8.794;2022-10-19T15:44:58;16.10;99.90
9847;DHT22;4962;50.084;8.794;2022-10-19T15:47:25;16.10;99.90
9847;DHT22;4962;50.084;8.794;2022-10-19T15:49:56;16.10;99.90
9847;DHT22;4962;50.084;8.794;2022-10-19T15:52:24;16.10;99.90
9847;DHT22;4962;50.084;8.794;2022-10-19T15:54:54;16.00;99.90
9847;DHT22;4962;50.084;8.794;2022-10-19T15:57:24;16.00;99.90
9847;DHT22;4962;50.084;8.794;2022-10-19T15:59:51;16.00;99.90
9847;DHT22;4962;50.084;8.794;2022-10-19T16:02:18;16.00;99.90
9847;DHT22;4962;50.084;8.794;2022-10-19T16:04:45;15.90;99.90
9847;DHT22;4962;50.084;8.794;2022-10-19T16:07:15;15.90;99.90
9847;DHT22;4962;50.084;8.794;2022-10-19T16:09:43;15.90;99.90
9847;DHT22;4962;50.084;8.794;2022-10-19T16:12:10;15.90;99.90
9847;DHT22;4962;50.084;8.794;2022-10-19T16:14:37;15.90;99.90
9847;DHT22;4962;50.084;8.794;2022-10-19T16:17:04;15.80;99.90
9847;DHT22;4962;50.084;8.794;2022-10-19T16:19:31;15.80;99.90
9847;DHT22;4962;50.084;8.794;2022-10-19T16:21:57;15.70;99.90
9847;DHT22;4962;50.084;8.794;2022-10-19T16:24:26;15.60;99.90
9847;DHT22;4962;50.084;8.794;2022-10-19T16:26:53;15.60;99.90
9847;DHT22;4962;50.084;8.794;2022-10-19T16:29:19;15.60;99.90
9847;DHT22;4962;50.084;8.794;2022-10-19T16:31:46;15.50;99.90
9847;DHT22;4962;50.084;8.794;2022-10-19T16:34:13;15.50;99.90
9847;DHT22;4962;50.084;8.794;2022-10-19T16:36:40;15.40;99.90
9847;DHT22;4962;50.084;8.794;2022-10-19T16:39:07;15.30;99.90
9847;DHT22;4962;50.084;8.794;2022-10-19T16:41:35;15.20;99.90
9847;DHT22;4962;50.084;8.794;2022-10-19T16:44:02;15.20;99.90